• Join FlightAware (Why Join?)
  • Login
  • US Flag 
05:18PM EDT


 

Airport Tracker/Info


-or-


 

Live Flight TrackerFlight Track Log ✈ TAM3147 ✈ 18-Nov-2013 ✈ SBVT / VIX - SBRJ / SDU

Flight Track Log - Related Links

Times and Time Zones

All times are in EST time to prevent confusion due to time zone crossing. See the TAM3147 flight status page for this flight to view local times or setup timezone preferences in your user account.

Time Position Orientation Groundspeed Altitude Reporting Facility
EST Latitude Longitude Course Direction KTS MPH feet Rate Location/Type
05:29AM -20.9714 -41.0447 225° Southwest  Level Estimated
05:30AM -21.0159 -41.0923 225° Southwest  Level Estimated
05:31AM -21.0603 -41.1400 225° Southwest  Level Estimated
05:32AM -21.1048 -41.1877 225° Southwest  Level Estimated
05:33AM -21.1492 -41.2354 225° Southwest  Level Estimated
05:34AM -21.1936 -41.2831 225° Southwest  Level Estimated
05:35AM -21.2380 -41.3309 225° Southwest  Level Estimated
05:36AM -21.2824 -41.3787 225° Southwest  Level Estimated
05:37AM -21.3268 -41.4265 225° Southwest  Level Estimated
05:38AM -21.3711 -41.4744 225° Southwest  Level Estimated
05:39AM -21.4155 -41.5223 225° Southwest  Level Estimated
05:40AM -21.4598 -41.5702 225° Southwest  Level Estimated
05:41AM -21.5042 -41.6181 225° Southwest  Level Estimated
05:42AM -21.5485 -41.6661 225° Southwest  Level Estimated
05:43AM -21.5928 -41.7141 225° Southwest  Level Estimated
05:44AM -21.6371 -41.7622 225° Southwest  Level Estimated
05:45AM -21.6813 -41.8102 225° Southwest  Level Estimated
05:46AM -21.7256 -41.8583 225° Southwest  Level Estimated
05:47AM -21.7698 -41.9064 225° Southwest  Level Estimated
05:48AM -21.8141 -41.9546 225° Southwest  Level Estimated
05:49AM -21.8583 -42.0028 225° Southwest  Level Estimated
05:50AM -21.9025 -42.0510 225° Southwest  Level Estimated
05:51AM -21.9466 -42.0992 225° Southwest  Level Estimated
05:52AM -21.9908 -42.1475 225° Southwest  Level Estimated
05:53AM -22.0350 -42.1958 225° Southwest  Level Estimated
05:54AM -22.0791 -42.2441 225° Southwest  Level Estimated
05:55AM -22.1232 -42.2925 225° Southwest  Level Estimated
05:56AM -22.1674 -42.3409 225° Southwest  Level Estimated
05:57AM -22.2115 -42.3893 225° Southwest  Level Estimated
05:58AM -22.2556 -42.4378 225° Southwest  Level Estimated
05:59AM -22.2996 -42.4862 226° Southwest  Level Estimated
06:00AM -22.3437 -42.5348 226° Southwest  Level Estimated
06:01AM -22.3877 -42.5833 226° Southwest  Level Estimated
06:02AM -22.4317 -42.6319 226° Southwest  Level Estimated
06:03AM -22.4758 -42.6805 226° Southwest  Level Estimated
06:04AM -22.5198 -42.7291 226° Southwest  Level Estimated
06:05AM -22.5637 -42.7778 226° Southwest  Level Estimated
06:06AM -22.6077 -42.8265 226° Southwest  Level Estimated
06:07AM -22.6517 -42.8752 226° Southwest  Level Estimated
06:08AM -22.6956 -42.9240 226° Southwest  Level Estimated
06:09AM -22.7395 -42.9728 226° Southwest  Level Estimated
06:10AM -22.7834 -43.0216 226° Southwest  Level Estimated
06:11AM -22.8273 -43.0705 226° Southwest  Level Estimated
06:12AM -22.8712 -43.1194 226° Southwest  Level Estimated
06:13AM -22.9105 -43.1631 226° Southwest  Level Estimated
06:14AM -22.9105 -43.1631 250° West  Level Estimated
06:15AM -22.9105 -43.1631 250° West  Level Estimated
06:16AM -22.9105 -43.1631 250° West  Level Estimated
06:17AM -22.9105 -43.1631 250° West  Level Estimated
06:18AM -22.9105 -43.1631 250° West  Level Estimated
06:19AM -22.9105 -43.1631 250° West  Level Estimated
06:20AM -22.9105 -43.1631 250° West  Level Estimated
06:21AM -22.9105 -43.1631 250° West  Level Estimated
06:22AM -22.9105 -43.1631 250° West  Level Estimated
06:23AM -22.9105 -43.1631 250° West  Level Estimated
06:24AM -22.9105 -43.1631 250° West  Level Estimated
06:25AM -22.9105 -43.1631 250° West  Level Estimated
06:26AM -22.9105 -43.1631 250° West  Level Estimated
06:27AM -22.9105 -43.1631 250° West  Level Estimated
06:28AM -22.9105 -43.1631 250° West  Level Estimated
06:29AM -22.9105 -43.1631 250° West  Level Estimated